sensor_id;sensor_type;location;lat;lon;timestamp;P1;durP1;ratioP1;P2;durP2;ratioP2
51907;SDS011;39320;53.214;6.556;2023-02-20T00:00:18;8.57;;;5.38;;
51907;SDS011;39320;53.214;6.556;2023-02-20T00:02:50;8.50;;;5.15;;
51907;SDS011;39320;53.214;6.556;2023-02-20T00:05:16;7.75;;;5.43;;
51907;SDS011;39320;53.214;6.556;2023-02-20T00:07:42;5.70;;;4.80;;
51907;SDS011;39320;53.214;6.556;2023-02-20T00:10:08;7.97;;;6.20;;
51907;SDS011;39320;53.214;6.556;2023-02-20T00:12:34;8.52;;;5.70;;
51907;SDS011;39320;53.214;6.556;2023-02-20T00:15:01;6.18;;;5.03;;
51907;SDS011;39320;53.214;6.556;2023-02-20T00:17:27;8.30;;;5.95;;
51907;SDS011;39320;53.214;6.556;2023-02-20T00:19:53;7.05;;;6.35;;
51907;SDS011;39320;53.214;6.556;2023-02-20T00:22:23;9.18;;;6.25;;
51907;SDS011;39320;53.214;6.556;2023-02-20T00:24:49;8.88;;;6.45;;
51907;SDS011;39320;53.214;6.556;2023-02-20T00:27:16;7.75;;;6.95;;
51907;SDS011;39320;53.214;6.556;2023-02-20T00:29:45;9.57;;;7.70;;
51907;SDS011;39320;53.214;6.556;2023-02-20T00:32:12;11.13;;;7.88;;
51907;SDS011;39320;53.214;6.556;2023-02-20T00:34:37;10.95;;;8.60;;
51907;SDS011;39320;53.214;6.556;2023-02-20T00:37:03;9.85;;;8.35;;
51907;SDS011;39320;53.214;6.556;2023-02-20T00:39:33;11.60;;;9.35;;
51907;SDS011;39320;53.214;6.556;2023-02-20T00:41:58;12.93;;;10.18;;
51907;SDS011;39320;53.214;6.556;2023-02-20T00:44:24;11.45;;;8.60;;
51907;SDS011;39320;53.214;6.556;2023-02-20T00:46:50;12.00;;;10.23;;
51907;SDS011;39320;53.214;6.556;2023-02-20T00:49:16;11.70;;;10.15;;
51907;SDS011;39320;53.214;6.556;2023-02-20T00:51:42;12.95;;;10.43;;
51907;SDS011;39320;53.214;6.556;2023-02-20T00:54:07;12.38;;;9.60;;
51907;SDS011;39320;53.214;6.556;2023-02-20T00:56:33;13.50;;;10.07;;
51907;SDS011;39320;53.214;6.556;2023-02-20T00:58:59;11.15;;;9.95;;
51907;SDS011;39320;53.214;6.556;2023-02-20T01:01:25;13.00;;;9.85;;
51907;SDS011;39320;53.214;6.556;2023-02-20T01:03:51;12.55;;;10.70;;
51907;SDS011;39320;53.214;6.556;2023-02-20T01:06:17;13.98;;;10.65;;
51907;SDS011;39320;53.214;6.556;2023-02-20T01:08:42;14.52;;;10.57;;
51907;SDS011;39320;53.214;6.556;2023-02-20T01:11:14;11.95;;;10.73;;
51907;SDS011;39320;53.214;6.556;2023-02-20T01:13:40;12.23;;;10.80;;
51907;SDS011;39320;53.214;6.556;2023-02-20T01:16:06;11.85;;;9.95;;
51907;SDS011;39320;53.214;6.556;2023-02-20T01:18:32;11.02;;;9.68;;
51907;SDS011;39320;53.214;6.556;2023-02-20T01:20:57;12.50;;;11.07;;
51907;SDS011;39320;53.214;6.556;2023-02-20T01:23:23;13.82;;;10.45;;
51907;SDS011;39320;53.214;6.556;2023-02-20T01:25:49;11.52;;;10.40;;
51907;SDS011;39320;53.214;6.556;2023-02-20T01:28:15;11.65;;;9.68;;
51907;SDS011;39320;53.214;6.556;2023-02-20T01:30:41;13.52;;;10.43;;
51907;SDS011;39320;53.214;6.556;2023-02-20T01:33:07;12.55;;;10.95;;
51907;SDS011;39320;53.214;6.556;2023-02-20T01:35:33;11.52;;;10.32;;
51907;SDS011;39320;53.214;6.556;2023-02-20T01:37:59;12.63;;;9.55;;
51907;SDS011;39320;53.214;6.556;2023-02-20T01:40:29;14.02;;;11.13;;
51907;SDS011;39320;53.214;6.556;2023-02-20T01:42:55;12.50;;;10.55;;
51907;SDS011;39320;53.214;6.556;2023-02-20T01:47:46;11.45;;;9.65;;
51907;SDS011;39320;53.214;6.556;2023-02-20T01:50:13;10.13;;;8.73;;
51907;SDS011;39320;53.214;6.556;2023-02-20T01:52:40;11.02;;;9.93;;
51907;SDS011;39320;53.214;6.556;2023-02-20T01:57:40;10.65;;;9.65;;
51907;SDS011;39320;53.214;6.556;2023-02-20T02:00:09;11.68;;;10.30;;
51907;SDS011;39320;53.214;6.556;2023-02-20T02:02:39;10.57;;;9.48;;
51907;SDS011;39320;53.214;6.556;2023-02-20T02:05:09;12.23;;;9.88;;
51907;SDS011;39320;53.214;6.556;2023-02-20T02:07:36;9.70;;;8.70;;
51907;SDS011;39320;53.214;6.556;2023-02-20T02:10:03;12.02;;;9.70;;
51907;SDS011;39320;53.214;6.556;2023-02-20T02:12:44;10.75;;;9.32;;
51907;SDS011;39320;53.214;6.556;2023-02-20T02:15:14;10.73;;;8.50;;
51907;SDS011;39320;53.214;6.556;2023-02-20T02:26:46;11.88;;;9.38;;
51907;SDS011;39320;53.214;6.556;2023-02-20T02:35:17;12.73;;;10.45;;
51907;SDS011;39320;53.214;6.556;2023-02-20T02:46:08;11.65;;;9.45;;
51907;SDS011;39320;53.214;6.556;2023-02-20T02:48:53;11.18;;;10.07;;
51907;SDS011;39320;53.214;6.556;2023-02-20T02:51:28;14.65;;;10.93;;
51907;SDS011;39320;53.214;6.556;2023-02-20T02:54:10;11.77;;;10.32;;
51907;SDS011;39320;53.214;6.556;2023-02-20T02:56:37;13.70;;;10.77;;
51907;SDS011;39320;53.214;6.556;2023-02-20T02:59:04;14.70;;;11.57;;
51907;SDS011;39320;53.214;6.556;2023-02-20T03:01:34;15.60;;;10.70;;
51907;SDS011;39320;53.214;6.556;2023-02-20T03:04:06;13.02;;;9.75;;
51907;SDS011;39320;53.214;6.556;2023-02-20T03:06:37;12.73;;;10.38;;
51907;SDS011;39320;53.214;6.556;2023-02-20T03:09:10;16.05;;;10.45;;
51907;SDS011;39320;53.214;6.556;2023-02-20T03:11:41;13.55;;;9.90;;
51907;SDS011;39320;53.214;6.556;2023-02-20T03:14:09;15.02;;;10.15;;
51907;SDS011;39320;53.214;6.556;2023-02-20T03:19:53;13.27;;;9.50;;
51907;SDS011;39320;53.214;6.556;2023-02-20T03:22:26;13.45;;;10.25;;
51907;SDS011;39320;53.214;6.556;2023-02-20T03:25:03;11.32;;;10.20;;
51907;SDS011;39320;53.214;6.556;2023-02-20T03:27:37;13.95;;;10.25;;
51907;SDS011;39320;53.214;6.556;2023-02-20T03:30:11;13.90;;;9.83;;
51907;SDS011;39320;53.214;6.556;2023-02-20T03:32:53;16.25;;;10.73;;
51907;SDS011;39320;53.214;6.556;2023-02-20T03:35:44;20.85;;;11.50;;
51907;SDS011;39320;53.214;6.556;2023-02-20T03:38:30;13.25;;;9.85;;
51907;SDS011;39320;53.214;6.556;2023-02-20T03:41:19;14.48;;;9.80;;
51907;SDS011;39320;53.214;6.556;2023-02-20T03:44:08;17.50;;;10.15;;
51907;SDS011;39320;53.214;6.556;2023-02-20T03:46:35;11.95;;;10.48;;
51907;SDS011;39320;53.214;6.556;2023-02-20T03:49:05;15.27;;;9.90;;
51907;SDS011;39320;53.214;6.556;2023-02-20T03:51:54;13.57;;;10.30;;
51907;SDS011;39320;53.214;6.556;2023-02-20T03:54:23;17.08;;;11.68;;
51907;SDS011;39320;53.214;6.556;2023-02-20T03:56:52;14.82;;;11.32;;
51907;SDS011;39320;53.214;6.556;2023-02-20T03:59:24;18.85;;;11.45;;
51907;SDS011;39320;53.214;6.556;2023-02-20T04:02:05;13.38;;;10.35;;
51907;SDS011;39320;53.214;6.556;2023-02-20T04:04:36;17.38;;;10.45;;
51907;SDS011;39320;53.214;6.556;2023-02-20T04:07:08;16.73;;;11.18;;
51907;SDS011;39320;53.214;6.556;2023-02-20T04:09:39;13.05;;;9.13;;
51907;SDS011;39320;53.214;6.556;2023-02-20T04:12:30;18.58;;;10.13;;
51907;SDS011;39320;53.214;6.556;2023-02-20T04:14:56;13.02;;;10.20;;
51907;SDS011;39320;53.214;6.556;2023-02-20T04:17:29;14.13;;;9.02;;
51907;SDS011;39320;53.214;6.556;2023-02-20T04:19:58;13.52;;;9.73;;
51907;SDS011;39320;53.214;6.556;2023-02-20T04:22:28;15.52;;;9.15;;
51907;SDS011;39320;53.214;6.556;2023-02-20T04:24:59;17.67;;;10.05;;
51907;SDS011;39320;53.214;6.556;2023-02-20T04:27:29;15.18;;;9.65;;
51907;SDS011;39320;53.214;6.556;2023-02-20T04:29:56;13.52;;;9.93;;
51907;SDS011;39320;53.214;6.556;2023-02-20T04:32:22;17.02;;;10.45;;
51907;SDS011;39320;53.214;6.556;2023-02-20T04:34:48;12.13;;;9.98;;
51907;SDS011;39320;53.214;6.556;2023-02-20T04:37:14;16.90;;;10.95;;
51907;SDS011;39320;53.214;6.556;2023-02-20T04:39:43;18.33;;;9.43;;
51907;SDS011;39320;53.214;6.556;2023-02-20T04:42:09;18.70;;;11.07;;
51907;SDS011;39320;53.214;6.556;2023-02-20T04:44:35;16.60;;;9.80;;
51907;SDS011;39320;53.214;6.556;2023-02-20T04:47:03;15.93;;;10.35;;
51907;SDS011;39320;53.214;6.556;2023-02-20T04:49:30;17.70;;;9.50;;
51907;SDS011;39320;53.214;6.556;2023-02-20T04:51:56;15.98;;;10.57;;
51907;SDS011;39320;53.214;6.556;2023-02-20T04:54:22;16.92;;;9.70;;
51907;SDS011;39320;53.214;6.556;2023-02-20T04:56:49;14.23;;;9.55;;
51907;SDS011;39320;53.214;6.556;2023-02-20T04:59:15;13.82;;;9.25;;
51907;SDS011;39320;53.214;6.556;2023-02-20T05:01:40;16.13;;;9.80;;
51907;SDS011;39320;53.214;6.556;2023-02-20T05:04:12;17.73;;;10.38;;
51907;SDS011;39320;53.214;6.556;2023-02-20T05:06:40;13.60;;;9.20;;
51907;SDS011;39320;53.214;6.556;2023-02-20T05:09:16;17.15;;;10.35;;
51907;SDS011;39320;53.214;6.556;2023-02-20T05:11:42;17.08;;;10.73;;
51907;SDS011;39320;53.214;6.556;2023-02-20T05:14:08;16.65;;;9.95;;
51907;SDS011;39320;53.214;6.556;2023-02-20T05:16:36;13.82;;;8.27;;
51907;SDS011;39320;53.214;6.556;2023-02-20T05:19:03;16.42;;;9.38;;
51907;SDS011;39320;53.214;6.556;2023-02-20T05:21:29;14.20;;;8.85;;
51907;SDS011;39320;53.214;6.556;2023-02-20T05:24:13;13.30;;;8.90;;
51907;SDS011;39320;53.214;6.556;2023-02-20T05:26:38;17.35;;;8.85;;
51907;SDS011;39320;53.214;6.556;2023-02-20T05:29:05;19.63;;;8.98;;
51907;SDS011;39320;53.214;6.556;2023-02-20T05:31:31;13.50;;;9.45;;
51907;SDS011;39320;53.214;6.556;2023-02-20T05:33:57;14.25;;;9.32;;
51907;SDS011;39320;53.214;6.556;2023-02-20T05:36:22;16.70;;;10.13;;
51907;SDS011;39320;53.214;6.556;2023-02-20T05:38:48;19.98;;;9.15;;
51907;SDS011;39320;53.214;6.556;2023-02-20T05:41:14;17.38;;;10.48;;
51907;SDS011;39320;53.214;6.556;2023-02-20T05:43:40;14.35;;;9.63;;
51907;SDS011;39320;53.214;6.556;2023-02-20T05:46:06;16.13;;;10.13;;
51907;SDS011;39320;53.214;6.556;2023-02-20T05:48:31;12.65;;;8.43;;
51907;SDS011;39320;53.214;6.556;2023-02-20T05:50:57;14.45;;;8.98;;
51907;SDS011;39320;53.214;6.556;2023-02-20T05:53:26;17.15;;;7.88;;
51907;SDS011;39320;53.214;6.556;2023-02-20T05:55:52;18.02;;;8.43;;
51907;SDS011;39320;53.214;6.556;2023-02-20T05:58:18;12.68;;;8.23;;
51907;SDS011;39320;53.214;6.556;2023-02-20T06:00:44;15.32;;;8.50;;
51907;SDS011;39320;53.214;6.556;2023-02-20T06:03:10;12.65;;;7.80;;
51907;SDS011;39320;53.214;6.556;2023-02-20T06:05:36;13.25;;;8.88;;
51907;SDS011;39320;53.214;6.556;2023-02-20T06:08:01;15.77;;;9.00;;
51907;SDS011;39320;53.214;6.556;2023-02-20T06:10:31;12.20;;;8.45;;
51907;SDS011;39320;53.214;6.556;2023-02-20T06:12:57;16.17;;;8.27;;
51907;SDS011;39320;53.214;6.556;2023-02-20T06:15:23;14.82;;;9.18;;
51907;SDS011;39320;53.214;6.556;2023-02-20T06:17:48;15.65;;;9.30;;
51907;SDS011;39320;53.214;6.556;2023-02-20T06:20:14;14.82;;;8.23;;
51907;SDS011;39320;53.214;6.556;2023-02-20T06:22:40;10.43;;;7.47;;
51907;SDS011;39320;53.214;6.556;2023-02-20T06:25:06;15.30;;;8.15;;
51907;SDS011;39320;53.214;6.556;2023-02-20T06:27:32;13.13;;;8.75;;
51907;SDS011;39320;53.214;6.556;2023-02-20T06:29:58;16.70;;;8.50;;
51907;SDS011;39320;53.214;6.556;2023-02-20T06:32:23;18.50;;;8.68;;
51907;SDS011;39320;53.214;6.556;2023-02-20T06:34:49;13.70;;;8.15;;
51907;SDS011;39320;53.214;6.556;2023-02-20T06:37:15;12.77;;;7.70;;
51907;SDS011;39320;53.214;6.556;2023-02-20T06:39:41;13.18;;;7.82;;
51907;SDS011;39320;53.214;6.556;2023-02-20T06:42:10;14.25;;;8.18;;
51907;SDS011;39320;53.214;6.556;2023-02-20T06:44:36;9.85;;;7.25;;
51907;SDS011;39320;53.214;6.556;2023-02-20T06:47:02;13.38;;;7.00;;
51907;SDS011;39320;53.214;6.556;2023-02-20T06:49:33;11.40;;;6.93;;
51907;SDS011;39320;53.214;6.556;2023-02-20T06:51:59;13.20;;;7.15;;
51907;SDS011;39320;53.214;6.556;2023-02-20T06:54:25;12.77;;;6.53;;
51907;SDS011;39320;53.214;6.556;2023-02-20T06:56:51;12.57;;;7.03;;
51907;SDS011;39320;53.214;6.556;2023-02-20T06:59:17;16.58;;;7.13;;
51907;SDS011;39320;53.214;6.556;2023-02-20T07:01:42;11.40;;;7.53;;
51907;SDS011;39320;53.214;6.556;2023-02-20T07:04:14;13.52;;;7.45;;
51907;SDS011;39320;53.214;6.556;2023-02-20T07:06:42;15.23;;;6.75;;
51907;SDS011;39320;53.214;6.556;2023-02-20T07:09:08;14.95;;;7.00;;
51907;SDS011;39320;53.214;6.556;2023-02-20T07:11:33;9.55;;;6.40;;
51907;SDS011;39320;53.214;6.556;2023-02-20T07:13:59;10.23;;;7.00;;
51907;SDS011;39320;53.214;6.556;2023-02-20T07:16:25;12.02;;;6.75;;
51907;SDS011;39320;53.214;6.556;2023-02-20T07:18:51;10.30;;;6.75;;
51907;SDS011;39320;53.214;6.556;2023-02-20T07:21:17;12.82;;;7.60;;
51907;SDS011;39320;53.214;6.556;2023-02-20T07:23:43;14.68;;;6.57;;
51907;SDS011;39320;53.214;6.556;2023-02-20T07:26:16;11.60;;;6.63;;
51907;SDS011;39320;53.214;6.556;2023-02-20T07:28:43;14.35;;;7.15;;
51907;SDS011;39320;53.214;6.556;2023-02-20T07:31:09;12.70;;;7.15;;
51907;SDS011;39320;53.214;6.556;2023-02-20T07:33:35;9.98;;;6.20;;
51907;SDS011;39320;53.214;6.556;2023-02-20T07:36:01;13.82;;;7.65;;
51907;SDS011;39320;53.214;6.556;2023-02-20T07:38:27;9.32;;;6.97;;
51907;SDS011;39320;53.214;6.556;2023-02-20T07:40:53;9.07;;;6.50;;
51907;SDS011;39320;53.214;6.556;2023-02-20T07:43:19;9.98;;;6.95;;
51907;SDS011;39320;53.214;6.556;2023-02-20T07:45:45;9.23;;;6.95;;
51907;SDS011;39320;53.214;6.556;2023-02-20T07:48:11;10.50;;;6.60;;
51907;SDS011;39320;53.214;6.556;2023-02-20T07:50:36;9.98;;;6.28;;
51907;SDS011;39320;53.214;6.556;2023-02-20T07:53:02;8.25;;;6.47;;
51907;SDS011;39320;53.214;6.556;2023-02-20T07:55:28;10.48;;;6.75;;
51907;SDS011;39320;53.214;6.556;2023-02-20T07:57:53;10.38;;;6.60;;
51907;SDS011;39320;53.214;6.556;2023-02-20T08:00:22;10.52;;;6.45;;
51907;SDS011;39320;53.214;6.556;2023-02-20T08:02:49;10.88;;;6.57;;
51907;SDS011;39320;53.214;6.556;2023-02-20T08:05:15;13.50;;;6.40;;
51907;SDS011;39320;53.214;6.556;2023-02-20T08:07:44;10.68;;;6.78;;
51907;SDS011;39320;53.214;6.556;2023-02-20T08:10:11;8.63;;;6.25;;
51907;SDS011;39320;53.214;6.556;2023-02-20T08:12:38;9.23;;;5.70;;
51907;SDS011;39320;53.214;6.556;2023-02-20T08:15:04;10.20;;;6.13;;
51907;SDS011;39320;53.214;6.556;2023-02-20T08:17:30;9.13;;;5.40;;
51907;SDS011;39320;53.214;6.556;2023-02-20T08:19:55;9.77;;;5.88;;
51907;SDS011;39320;53.214;6.556;2023-02-20T08:22:21;11.38;;;6.60;;
51907;SDS011;39320;53.214;6.556;2023-02-20T08:24:47;9.48;;;6.18;;
51907;SDS011;39320;53.214;6.556;2023-02-20T08:27:13;11.55;;;7.22;;
51907;SDS011;39320;53.214;6.556;2023-02-20T08:29:38;10.05;;;6.13;;
51907;SDS011;39320;53.214;6.556;2023-02-20T08:32:04;11.38;;;6.25;;
51907;SDS011;39320;53.214;6.556;2023-02-20T08:34:30;12.70;;;6.40;;
51907;SDS011;39320;53.214;6.556;2023-02-20T08:36:56;10.48;;;6.63;;
51907;SDS011;39320;53.214;6.556;2023-02-20T08:39:22;10.15;;;6.97;;
51907;SDS011;39320;53.214;6.556;2023-02-20T08:41:47;10.52;;;5.93;;
51907;SDS011;39320;53.214;6.556;2023-02-20T08:44:13;8.82;;;6.57;;
51907;SDS011;39320;53.214;6.556;2023-02-20T08:46:46;12.18;;;6.90;;
51907;SDS011;39320;53.214;6.556;2023-02-20T08:49:13;10.23;;;6.60;;
51907;SDS011;39320;53.214;6.556;2023-02-20T08:51:42;10.73;;;6.65;;
51907;SDS011;39320;53.214;6.556;2023-02-20T08:54:09;14.40;;;6.95;;
51907;SDS011;39320;53.214;6.556;2023-02-20T08:56:35;9.30;;;6.50;;
51907;SDS011;39320;53.214;6.556;2023-02-20T08:59:01;12.00;;;7.18;;
51907;SDS011;39320;53.214;6.556;2023-02-20T09:01:27;9.43;;;6.47;;
51907;SDS011;39320;53.214;6.556;2023-02-20T09:03:52;10.77;;;6.82;;
51907;SDS011;39320;53.214;6.556;2023-02-20T09:06:18;10.75;;;6.97;;
51907;SDS011;39320;53.214;6.556;2023-02-20T09:08:44;12.13;;;6.20;;
51907;SDS011;39320;53.214;6.556;2023-02-20T09:11:10;9.90;;;6.10;;
51907;SDS011;39320;53.214;6.556;2023-02-20T09:13:43;9.73;;;5.70;;
51907;SDS011;39320;53.214;6.556;2023-02-20T09:16:13;7.68;;;6.60;;
51907;SDS011;39320;53.214;6.556;2023-02-20T09:18:41;10.30;;;6.55;;
51907;SDS011;39320;53.214;6.556;2023-02-20T09:21:08;8.30;;;5.60;;
51907;SDS011;39320;53.214;6.556;2023-02-20T09:23:39;11.73;;;6.22;;
51907;SDS011;39320;53.214;6.556;2023-02-20T09:26:04;8.88;;;5.43;;
51907;SDS011;39320;53.214;6.556;2023-02-20T09:28:30;7.68;;;6.00;;
51907;SDS011;39320;53.214;6.556;2023-02-20T09:30:56;11.15;;;5.93;;
51907;SDS011;39320;53.214;6.556;2023-02-20T09:33:24;6.85;;;5.93;;
51907;SDS011;39320;53.214;6.556;2023-02-20T09:35:51;9.02;;;5.85;;
51907;SDS011;39320;53.214;6.556;2023-02-20T09:38:19;10.23;;;5.78;;
51907;SDS011;39320;53.214;6.556;2023-02-20T09:40:47;14.77;;;7.05;;
51907;SDS011;39320;53.214;6.556;2023-02-20T09:46:17;12.02;;;6.72;;
51907;SDS011;39320;53.214;6.556;2023-02-20T09:48:53;8.88;;;6.10;;
51907;SDS011;39320;53.214;6.556;2023-02-20T09:51:36;9.20;;;6.22;;
51907;SDS011;39320;53.214;6.556;2023-02-20T09:54:20;11.43;;;7.25;;
51907;SDS011;39320;53.214;6.556;2023-02-20T09:56:56;9.90;;;6.68;;
51907;SDS011;39320;53.214;6.556;2023-02-20T09:59:26;10.07;;;6.68;;
51907;SDS011;39320;53.214;6.556;2023-02-20T10:05:05;14.38;;;7.05;;
51907;SDS011;39320;53.214;6.556;2023-02-20T10:07:17;9.77;;;6.32;;
51907;SDS011;39320;53.214;6.556;2023-02-20T10:09:52;11.50;;;6.03;;
51907;SDS011;39320;53.214;6.556;2023-02-20T10:12:27;10.40;;;6.10;;
51907;SDS011;39320;53.214;6.556;2023-02-20T10:15:39;9.82;;;6.05;;
51907;SDS011;39320;53.214;6.556;2023-02-20T10:17:59;10.00;;;6.82;;
51907;SDS011;39320;53.214;6.556;2023-02-20T10:20:56;11.60;;;7.45;;
51907;SDS011;39320;53.214;6.556;2023-02-20T10:23:27;10.50;;;6.78;;
51907;SDS011;39320;53.214;6.556;2023-02-20T10:26:21;8.75;;;6.03;;
51907;SDS011;39320;53.214;6.556;2023-02-20T10:28:51;10.27;;;6.28;;
51907;SDS011;39320;53.214;6.556;2023-02-20T10:36:41;10.50;;;6.35;;
51907;SDS011;39320;53.214;6.556;2023-02-20T10:39:12;9.40;;;6.15;;
51907;SDS011;39320;53.214;6.556;2023-02-20T10:44:28;7.80;;;5.65;;
51907;SDS011;39320;53.214;6.556;2023-02-20T10:47:04;7.22;;;6.28;;
51907;SDS011;39320;53.214;6.556;2023-02-20T10:52:06;11.52;;;6.50;;
51907;SDS011;39320;53.214;6.556;2023-02-20T10:54:37;9.30;;;5.75;;
51907;SDS011;39320;53.214;6.556;2023-02-20T10:59:49;7.80;;;5.90;;
51907;SDS011;39320;53.214;6.556;2023-02-20T11:02:24;10.50;;;5.72;;
51907;SDS011;39320;53.214;6.556;2023-02-20T11:04:59;7.00;;;5.30;;
51907;SDS011;39320;53.214;6.556;2023-02-20T11:12:35;12.90;;;7.03;;
51907;SDS011;39320;53.214;6.556;2023-02-20T11:15:07;13.18;;;6.03;;
51907;SDS011;39320;53.214;6.556;2023-02-20T11:17:38;7.90;;;5.68;;
51907;SDS011;39320;53.214;6.556;2023-02-20T11:20:08;9.75;;;6.22;;
51907;SDS011;39320;53.214;6.556;2023-02-20T11:22:59;13.05;;;6.00;;
51907;SDS011;39320;53.214;6.556;2023-02-20T11:25:26;12.35;;;5.30;;
51907;SDS011;39320;53.214;6.556;2023-02-20T11:30:57;6.95;;;5.03;;
51907;SDS011;39320;53.214;6.556;2023-02-20T11:33:29;11.07;;;6.30;;
51907;SDS011;39320;53.214;6.556;2023-02-20T11:35:57;13.18;;;5.72;;
51907;SDS011;39320;53.214;6.556;2023-02-20T11:38:39;8.82;;;5.00;;
51907;SDS011;39320;53.214;6.556;2023-02-20T11:46:34;8.90;;;5.80;;
51907;SDS011;39320;53.214;6.556;2023-02-20T11:49:07;8.48;;;5.32;;
51907;SDS011;39320;53.214;6.556;2023-02-20T11:54:07;8.80;;;5.40;;
51907;SDS011;39320;53.214;6.556;2023-02-20T11:57:01;12.63;;;5.47;;
51907;SDS011;39320;53.214;6.556;2023-02-20T12:04:45;8.07;;;5.63;;
51907;SDS011;39320;53.214;6.556;2023-02-20T12:07:34;10.50;;;6.18;;
51907;SDS011;39320;53.214;6.556;2023-02-20T12:10:15;14.68;;;7.10;;
51907;SDS011;39320;53.214;6.556;2023-02-20T12:12:49;8.38;;;4.90;;
51907;SDS011;39320;53.214;6.556;2023-02-20T12:15:17;10.98;;;5.72;;
51907;SDS011;39320;53.214;6.556;2023-02-20T12:20:52;12.93;;;5.53;;
51907;SDS011;39320;53.214;6.556;2023-02-20T12:23:47;11.25;;;5.15;;
51907;SDS011;39320;53.214;6.556;2023-02-20T12:26:44;8.95;;;5.75;;
51907;SDS011;39320;53.214;6.556;2023-02-20T12:29:28;8.43;;;5.25;;
51907;SDS011;39320;53.214;6.556;2023-02-20T12:46:08;9.82;;;5.25;;
51907;SDS011;39320;53.214;6.556;2023-02-20T12:51:51;9.07;;;4.93;;
51907;SDS011;39320;53.214;6.556;2023-02-20T12:57:11;11.77;;;5.65;;
51907;SDS011;39320;53.214;6.556;2023-02-20T13:02:28;12.90;;;5.50;;
51907;SDS011;39320;53.214;6.556;2023-02-20T13:05:06;9.07;;;4.72;;
51907;SDS011;39320;53.214;6.556;2023-02-20T13:07:51;8.57;;;4.97;;
51907;SDS011;39320;53.214;6.556;2023-02-20T13:10:27;9.35;;;4.68;;
51907;SDS011;39320;53.214;6.556;2023-02-20T13:13:07;11.18;;;5.80;;
51907;SDS011;39320;53.214;6.556;2023-02-20T13:21:16;9.73;;;5.35;;
51907;SDS011;39320;53.214;6.556;2023-02-20T13:23:45;11.25;;;5.80;;
51907;SDS011;39320;53.214;6.556;2023-02-20T13:29:14;7.10;;;4.93;;
51907;SDS011;39320;53.214;6.556;2023-02-20T13:36:42;8.27;;;5.63;;
51907;SDS011;39320;53.214;6.556;2023-02-20T13:47:15;9.98;;;4.82;;
51907;SDS011;39320;53.214;6.556;2023-02-20T14:00:16;11.23;;;5.28;;
51907;SDS011;39320;53.214;6.556;2023-02-20T14:02:48;11.27;;;4.65;;
51907;SDS011;39320;53.214;6.556;2023-02-20T14:05:30;11.45;;;5.70;;
51907;SDS011;39320;53.214;6.556;2023-02-20T14:07:57;10.55;;;4.97;;
51907;SDS011;39320;53.214;6.556;2023-02-20T14:15:33;10.18;;;4.88;;
51907;SDS011;39320;53.214;6.556;2023-02-20T14:18:14;11.95;;;5.38;;
51907;SDS011;39320;53.214;6.556;2023-02-20T14:21:09;9.13;;;4.85;;
51907;SDS011;39320;53.214;6.556;2023-02-20T14:23:43;11.52;;;6.00;;
51907;SDS011;39320;53.214;6.556;2023-02-20T14:26:24;10.77;;;5.40;;
51907;SDS011;39320;53.214;6.556;2023-02-20T14:29:01;10.43;;;4.55;;
51907;SDS011;39320;53.214;6.556;2023-02-20T14:31:42;10.40;;;4.57;;
51907;SDS011;39320;53.214;6.556;2023-02-20T14:34:10;12.93;;;4.97;;
51907;SDS011;39320;53.214;6.556;2023-02-20T14:39:36;7.80;;;4.78;;
51907;SDS011;39320;53.214;6.556;2023-02-20T14:44:46;9.25;;;5.03;;
51907;SDS011;39320;53.214;6.556;2023-02-20T14:47:14;9.45;;;4.78;;
51907;SDS011;39320;53.214;6.556;2023-02-20T14:49:44;12.05;;;5.88;;
51907;SDS011;39320;53.214;6.556;2023-02-20T14:54:42;12.25;;;5.35;;
51907;SDS011;39320;53.214;6.556;2023-02-20T14:57:20;9.65;;;4.70;;
51907;SDS011;39320;53.214;6.556;2023-02-20T14:59:46;11.45;;;4.93;;
51907;SDS011;39320;53.214;6.556;2023-02-20T15:05:01;11.88;;;5.07;;
51907;SDS011;39320;53.214;6.556;2023-02-20T15:07:30;10.10;;;4.28;;
51907;SDS011;39320;53.214;6.556;2023-02-20T15:09:58;9.65;;;4.60;;
51907;SDS011;39320;53.214;6.556;2023-02-20T15:12:37;8.40;;;4.53;;
51907;SDS011;39320;53.214;6.556;2023-02-20T15:15:09;9.02;;;5.50;;
51907;SDS011;39320;53.214;6.556;2023-02-20T15:17:41;13.32;;;5.88;;
51907;SDS011;39320;53.214;6.556;2023-02-20T15:20:16;8.98;;;4.90;;
51907;SDS011;39320;53.214;6.556;2023-02-20T15:22:44;10.93;;;5.05;;
51907;SDS011;39320;53.214;6.556;2023-02-20T15:25:27;10.98;;;5.18;;
51907;SDS011;39320;53.214;6.556;2023-02-20T15:33:28;7.30;;;5.28;;
51907;SDS011;39320;53.214;6.556;2023-02-20T15:35:55;7.72;;;4.65;;
51907;SDS011;39320;53.214;6.556;2023-02-20T15:38:24;8.00;;;5.47;;
51907;SDS011;39320;53.214;6.556;2023-02-20T15:40:57;10.05;;;5.32;;
51907;SDS011;39320;53.214;6.556;2023-02-20T15:43:27;8.93;;;5.35;;
51907;SDS011;39320;53.214;6.556;2023-02-20T15:45:53;12.70;;;5.60;;
51907;SDS011;39320;53.214;6.556;2023-02-20T15:48:19;10.50;;;5.43;;
51907;SDS011;39320;53.214;6.556;2023-02-20T15:50:45;8.25;;;4.80;;
51907;SDS011;39320;53.214;6.556;2023-02-20T15:53:22;13.10;;;5.22;;
51907;SDS011;39320;53.214;6.556;2023-02-20T15:55:50;7.57;;;5.07;;
51907;SDS011;39320;53.214;6.556;2023-02-20T15:58:36;8.18;;;5.00;;
51907;SDS011;39320;53.214;6.556;2023-02-20T16:01:04;10.85;;;5.47;;
51907;SDS011;39320;53.214;6.556;2023-02-20T16:03:31;7.95;;;5.13;;
51907;SDS011;39320;53.214;6.556;2023-02-20T16:05:58;9.38;;;4.57;;
51907;SDS011;39320;53.214;6.556;2023-02-20T16:08:24;11.20;;;5.13;;
51907;SDS011;39320;53.214;6.556;2023-02-20T16:10:51;8.95;;;4.38;;
51907;SDS011;39320;53.214;6.556;2023-02-20T16:13:29;7.80;;;4.95;;
51907;SDS011;39320;53.214;6.556;2023-02-20T16:15:59;8.63;;;4.85;;
51907;SDS011;39320;53.214;6.556;2023-02-20T16:18:47;10.70;;;5.55;;
51907;SDS011;39320;53.214;6.556;2023-02-20T16:21:33;11.25;;;5.10;;
51907;SDS011;39320;53.214;6.556;2023-02-20T16:23:59;10.13;;;5.40;;
51907;SDS011;39320;53.214;6.556;2023-02-20T16:26:36;10.38;;;4.55;;
51907;SDS011;39320;53.214;6.556;2023-02-20T16:29:08;11.80;;;5.28;;
51907;SDS011;39320;53.214;6.556;2023-02-20T16:34:24;8.35;;;4.97;;
51907;SDS011;39320;53.214;6.556;2023-02-20T16:36:52;9.93;;;5.00;;
51907;SDS011;39320;53.214;6.556;2023-02-20T16:39:18;10.77;;;5.20;;
51907;SDS011;39320;53.214;6.556;2023-02-20T16:41:44;7.70;;;4.57;;
51907;SDS011;39320;53.214;6.556;2023-02-20T16:44:22;10.63;;;5.10;;
51907;SDS011;39320;53.214;6.556;2023-02-20T16:47:00;7.70;;;5.13;;
51907;SDS011;39320;53.214;6.556;2023-02-20T16:49:26;9.27;;;5.32;;
51907;SDS011;39320;53.214;6.556;2023-02-20T16:51:52;10.95;;;4.72;;
51907;SDS011;39320;53.214;6.556;2023-02-20T16:54:26;8.55;;;4.70;;
51907;SDS011;39320;53.214;6.556;2023-02-20T16:56:56;7.30;;;5.22;;
51907;SDS011;39320;53.214;6.556;2023-02-20T16:59:24;10.93;;;5.60;;
51907;SDS011;39320;53.214;6.556;2023-02-20T17:01:50;11.60;;;5.70;;
51907;SDS011;39320;53.214;6.556;2023-02-20T17:04:16;9.82;;;5.32;;
51907;SDS011;39320;53.214;6.556;2023-02-20T17:06:44;9.55;;;5.82;;
51907;SDS011;39320;53.214;6.556;2023-02-20T17:09:10;9.00;;;5.82;;
51907;SDS011;39320;53.214;6.556;2023-02-20T17:11:37;7.40;;;5.47;;
51907;SDS011;39320;53.214;6.556;2023-02-20T17:14:02;9.70;;;5.40;;
51907;SDS011;39320;53.214;6.556;2023-02-20T17:16:28;8.98;;;5.70;;
51907;SDS011;39320;53.214;6.556;2023-02-20T17:18:54;9.23;;;5.93;;
51907;SDS011;39320;53.214;6.556;2023-02-20T17:21:20;8.23;;;5.75;;
51907;SDS011;39320;53.214;6.556;2023-02-20T17:23:46;12.90;;;6.55;;
51907;SDS011;39320;53.214;6.556;2023-02-20T17:26:12;8.45;;;5.70;;